Almeria, NE

4:04 AM CDT on July 30, 2014 (GMT -0500)
Sargent (KNESARGE4) Elev 2314 ft | 41.64 °N, 99.38 °W | Change Station

Current weather conditions updated 12 minutes ago

Clear
Clear
56.9 °F
Feels Like 56.9 °F
N
0.0
Wind Variable Wind from ENE
Gusts 2.0 mph

Today is forecast to be nearly the same temperature as yesterday.

Today
High -- | Low -- °F
--% Chance of Precip.
Yesterday
High -- | Low -- °F
Precip. -- in
6:29 AM 8:58 PM
Waxing Crescent, 10% visible
Pressure 30.14 in
Visibility 10.0 miles
Clouds Clear
Dew Point 56 °F
Humidity 96%
Rainfall 0.00 in
Snow Depth Not available.
UV 0 out of 12
Pollen 7.10 out of 12
Air Quality Not available.
Flu Activity Not available.
METAR KODX 300853Z AUTO 00000KT 10SM CLR 13/13 A3015 RMK AO2 SLP205 T01330128 58004

More Conditions Fewer Conditions

Pressure 30.14 in
Visibility 10.0 miles
Clouds Clear
Dew Point 56 °F
Humidity 96%
Rainfall 0.00 in
Snow Depth Not available.
UV 0 out of 12
Pollen 7.10 out of 12
Air Quality Not available.
Flu Activity Not available.
METAR KODX 300853Z AUTO 00000KT 10SM CLR 13/13 A3015 RMK AO2 SLP205 T01330128 58004

More Conditions Fewer Conditions

10-Day Weather Forecast

Almanac

Astronomy

Jul. 30, 2014 Rise Set
Actual Time 6:29 AM CDT 8:58 PM CDT
Civil Twilight 5:57 AM CDT 9:29 PM CDT
Nautical Twilight 5:18 AM CDT 10:08 PM CDT
Astronomical Twilight 4:34 AM CDT 10:52 PM CDT
Moon 10:06 AM CDT 10:36 PM CDT
Length of Visible Light 15h 31m
Length of Day
14h 28m
Tomorrow will be 2m 5s shorter.
Waxing Crescent, 10% of the Moon is Illuminated
Today
Waxing Crescent
Aug 3
First Quarter
Aug 10
Full
Aug 17
Last Quarter
Aug 25
New

Today's Extremes

State Highs State Lows

Community

WunderPhotos

Upload Photos

1,739,018 photos uploaded!

WunderBlogs® & News

By Dr. Jeff Masters
Director of Meteorology, Weather Underground
By Kari Strenfel
Meteorologist, Weather Underground
By Christopher C. Burt
Weather Historian, Weather Underground
July 29, 2014
July 29, 2014
July 29, 2014

Nearby

Snow Depth

Station Depth Elevation
No new snow has been reported.

Earthquake Activity

City Distance Mag. Time & Date
No recent earthquake activity has been reported nearby.
Minimum magnitude displayed is 2.5.

Coastal Water Temperatures

Place Temperature
No Stations Reporting

Nearby Weather Stations

Station Location Temp. Dew Point Humidity Wind Precip. Elev Updated Type
Sargent, Sargent, NE 56.9 °F 56 °F 96% ENE  at  0.0 mph 0.00 in / hr 2314 ft 3:52 AM CDT Normal

Show More Stations Show Fewer Stations